.
WxDataArchive / Data Records for 2010-10-24
2010-10-23 October 2010 2010-10-25

Data Records for Sunday, 24 October 2010

Time	Temp	Chill	HIndex	Humid	Dewpt	 Wind 	HiWind	WindDir	Rain 	Barom 
-----	----	-----	------	-----	-----	------	------	-------	-----	----- 
00:00	56.5	56.5	56.5	44	34.9	0	0	---	0.00	29.993 
00:05	56.6	56.6	56.6	44	34.9	0	0	---	0.00	29.993 
00:10	56.7	56.7	56.7	45	35.6	0	0	---	0.00	29.993 
00:15	56.9	56.9	56.9	44	35.2	0	0	---	0.00	29.987 
00:20	57.0	57.0	57.0	44	35.3	0	0	---	0.00	29.987 
00:25	57.0	57.0	57.0	44	35.3	0	0	---	0.00	29.987 
00:30	57.3	57.3	57.3	45	36.1	0	0	---	0.00	29.987 
00:35	57.5	57.5	57.5	45	36.3	0	0	---	0.00	29.987 
00:40	57.5	57.5	57.5	44	35.8	0	0	---	0.00	29.987 
00:45	57.5	57.5	57.5	44	35.8	0	0	---	0.00	29.981 
00:50	57.5	57.5	57.5	44	35.8	0	0	---	0.00	29.981 
00:55	57.6	57.6	57.6	44	35.8	0	0	---	0.00	29.981 
01:00	57.8	57.8	57.8	44	36.0	0	1	248	0.00	29.975 
01:05	57.8	57.8	57.8	44	36.0	0	0	---	0.00	29.975 
01:10	58.1	58.1	58.1	44	36.3	0	0	---	0.00	29.975 
01:15	58.3	58.3	58.3	43	35.9	0	1	248	0.00	29.974 
01:20	58.6	58.6	58.6	42	35.6	0	0	---	0.00	29.974 
01:25	58.9	58.9	58.9	43	36.4	0	0	---	0.00	29.974 
01:30	59.0	59.0	59.0	42	35.9	0	1	248	0.00	29.975 
01:35	59.3	59.3	59.3	41	35.6	0	2	248	0.00	29.975 
01:40	59.6	59.6	59.6	37	33.3	0	3	248	0.00	29.975 
01:45	59.9	59.9	59.9	40	35.5	0	1	248	0.00	29.970 
01:50	60.1	60.1	60.1	39	35.1	0	2	248	0.00	29.970 
01:55	60.4	60.4	60.4	39	35.3	0	2	248	0.00	29.970 
02:00	60.5	60.5	60.5	39	35.4	0	1	248	0.00	29.970 
02:05	60.5	60.5	60.5	39	35.4	0	4	248	0.00	29.970 
02:10	60.5	60.5	60.5	39	35.4	0	2	248	0.00	29.970 
02:15	60.5	60.5	60.5	38	34.8	0	2	248	0.00	29.967 
02:20	60.5	60.5	60.5	39	35.4	0	2	248	0.00	29.967 
02:25	60.7	60.7	60.7	39	35.6	0	2	248	0.00	29.967 
02:30	60.7	60.7	60.7	39	35.6	0	2	248	0.00	29.968 
02:35	60.9	60.9	60.9	38	35.1	0	3	248	0.00	29.968 
02:40	61.0	61.0	61.0	38	35.2	1	4	248	0.00	29.968 
02:45	61.2	61.2	61.2	38	35.4	0	2	248	0.00	29.965 
02:50	61.3	61.3	61.3	38	35.5	0	4	248	0.00	29.965 
02:55	61.3	61.3	61.3	38	35.5	0	3	248	0.00	29.965 
03:00	61.2	61.2	61.2	38	35.4	0	1	248	0.00	29.968 
03:05	61.2	61.2	61.2	38	35.4	0	2	248	0.00	29.968 
03:10	61.2	61.2	61.2	38	35.4	0	3	248	0.00	29.968 
03:15	61.0	61.0	61.0	39	35.9	0	2	248	0.00	29.969 
03:20	61.0	61.0	61.0	39	35.9	0	2	248	0.00	29.969 
03:25	60.9	60.9	60.9	39	35.8	0	1	248	0.00	29.969 
03:30	60.7	60.7	60.7	39	35.6	0	2	248	0.00	29.968 
03:35	60.5	60.5	60.5	40	36.1	0	2	248	0.00	29.968 
03:40	60.4	60.4	60.4	40	36.0	0	1	248	0.00	29.968 
03:45	60.2	60.2	60.2	41	36.4	0	0	---	0.00	29.964 
03:50	59.9	59.9	59.9	41	36.1	0	1	248	0.00	29.964 
03:55	59.6	59.6	59.6	41	35.9	0	1	248	0.00	29.964 
04:00	59.6	59.6	59.6	41	35.9	0	3	248	0.00	29.968 
04:05	59.6	59.6	59.6	41	35.9	0	2	248	0.00	29.968 
04:10	59.6	59.6	59.6	41	35.9	0	1	248	0.00	29.968 
04:15	59.3	59.3	59.3	42	36.2	0	1	248	0.00	29.959 
04:20	59.2	59.2	59.2	43	36.7	0	1	248	0.00	29.959 
04:25	59.0	59.0	59.0	43	36.5	0	0	---	0.00	29.959 
04:30	58.7	58.7	58.7	43	36.3	0	0	---	0.00	29.955 
04:35	58.6	58.6	58.6	44	36.8	0	0	---	0.00	29.955 
04:40	58.4	58.4	58.4	44	36.6	0	0	---	0.00	29.955 
04:45	58.4	58.4	58.4	44	36.6	0	0	---	0.00	29.954 
04:50	58.3	58.3	58.3	44	36.5	0	1	248	0.00	29.954 
04:55	58.3	58.3	58.3	45	37.1	0	1	248	0.00	29.954 
05:00	58.4	58.4	58.4	44	36.6	0	0	---	0.00	29.953 
05:05	58.4	58.4	58.4	46	37.7	0	1	248	0.00	29.953 
05:10	58.4	58.4	58.4	45	37.1	0	1	248	0.00	29.953 
05:15	58.6	58.6	58.6	44	36.8	0	1	248	0.00	29.953 
05:20	58.6	58.6	58.6	44	36.8	0	0	---	0.00	29.953 
05:25	58.7	58.7	58.7	44	36.8	0	1	248	0.00	29.953 
05:30	58.7	58.7	58.7	44	36.8	0	0	---	0.00	29.950 
05:35	58.7	58.7	58.7	45	37.4	0	0	---	0.00	29.950 
05:40	58.6	58.6	58.6	45	37.3	0	0	---	0.00	29.950 
05:45	58.4	58.4	58.4	45	37.1	0	0	---	0.00	29.949 
05:50	58.4	58.4	58.4	45	37.1	0	0	---	0.00	29.949 
05:55	58.4	58.4	58.4	46	37.7	0	0	---	0.00	29.949 
06:00	58.4	58.4	58.4	46	37.7	0	0	---	0.00	29.951 
06:05	58.6	58.6	58.6	46	37.9	0	0	---	0.00	29.951 
06:10	58.7	58.7	58.7	46	38.0	0	0	---	0.00	29.951 
06:15	58.7	58.7	58.7	46	38.0	0	0	---	0.00	29.953 
06:20	58.9	58.9	58.9	46	38.2	0	1	248	0.00	29.953 
06:25	59.0	59.0	59.0	46	38.2	0	2	248	0.00	29.953 
06:30	59.2	59.2	59.2	46	38.4	0	0	---	0.00	29.954 
06:35	59.2	59.2	59.2	45	37.9	0	1	248	0.00	29.954 
06:40	59.6	59.6	59.6	44	37.7	0	3	248	0.00	29.954 
06:45	59.9	59.9	59.9	45	38.5	0	1	248	0.00	29.951 
06:50	60.2	60.2	60.2	44	38.2	0	1	248	0.00	29.951 
06:55	60.5	60.5	60.5	43	37.9	1	3	248	0.00	29.951 
07:00	61.0	61.0	61.0	42	37.7	1	3	248	0.00	29.953 
07:05	61.3	61.3	61.3	42	38.0	0	4	248	0.00	29.953 
07:10	61.5	61.5	61.5	42	38.2	0	2	248	0.00	29.953 
07:15	61.5	61.5	61.5	42	38.2	0	2	248	0.00	29.951 
07:20	61.5	61.5	61.5	42	38.2	0	1	248	0.00	29.951 
07:25	61.3	61.3	61.3	42	38.0	0	1	248	0.00	29.951 
07:30	61.3	61.3	61.3	43	38.6	0	1	248	0.00	29.944 
07:35	61.2	61.2	61.2	43	38.5	0	0	---	0.00	29.944 
07:40	61.0	61.0	61.0	44	38.9	0	0	---	0.00	29.944 
07:45	60.7	60.7	60.7	44	38.7	0	0	---	0.00	29.945 
07:50	60.5	60.5	60.5	44	38.5	0	1	248	0.00	29.945 
07:55	60.4	60.4	60.4	45	39.0	0	1	248	0.00	29.945 
08:00	60.2	60.2	60.2	45	38.8	0	1	248	0.00	29.939 
08:05	60.1	60.1	60.1	45	38.7	0	3	248	0.00	29.939 
08:10	59.9	59.9	59.9	45	38.5	0	1	248	0.00	29.939 
08:15	59.9	59.9	59.9	45	38.5	0	1	248	0.00	29.931 
08:20	59.9	59.9	59.9	45	38.5	0	2	248	0.00	29.931 
08:25	59.9	59.9	59.9	46	39.1	0	0	---	0.00	29.931 
08:30	59.9	59.9	59.9	46	39.1	0	1	248	0.00	29.935 
08:35	59.9	59.9	59.9	46	39.1	0	2	248	0.00	29.935 
08:40	60.1	60.1	60.1	47	39.8	0	1	248	0.00	29.935 
08:45	60.4	60.4	60.4	46	39.5	0	2	248	0.00	29.909 
08:50	60.7	60.7	60.7	46	39.8	1	4	112	0.00	29.909 
08:55	61.2	61.2	61.2	46	40.3	1	4	248	0.00	29.909 
09:00	61.5	61.5	61.5	46	40.5	0	2	270	0.00	29.930 
09:05	61.6	61.6	61.6	46	40.6	0	3	45	0.00	29.930 
09:10	61.8	61.8	61.8	47	41.4	0	2	338	0.00	29.930 
09:15	62.1	62.1	62.1	47	41.6	1	5	68	0.00	29.936 
09:20	62.4	62.4	62.4	46	41.3	1	4	248	0.00	29.936 
09:25	62.6	62.6	62.6	46	41.5	0	2	248	0.00	29.936 
09:30	62.6	62.6	62.6	46	41.5	0	2	248	0.00	29.935 
09:35	62.7	62.7	62.7	46	41.6	0	2	248	0.00	29.935 
09:40	62.9	62.9	62.9	46	41.8	0	2	248	0.00	29.935 
09:45	63.1	63.1	63.1	46	42.0	0	3	248	0.00	29.922 
09:50	63.2	63.2	63.2	46	42.1	1	3	68	0.00	29.922 
09:55	63.4	63.4	63.4	46	42.3	1	4	90	0.00	29.922 
10:00	63.7	63.7	63.7	46	42.5	1	3	68	0.00	29.924 
10:05	63.9	63.9	63.9	46	42.7	1	5	270	0.00	29.924 
10:10	63.9	63.9	63.9	46	42.7	1	5	270	0.00	29.924 
10:15	64.2	64.2	64.2	46	43.0	1	3	45	0.00	29.926 
10:20	64.3	64.3	64.3	46	43.1	1	4	225	0.00	29.926 
10:25	64.8	64.8	64.8	46	43.5	1	5	225	0.00	29.926 
10:30	65.2	65.2	65.2	45	43.3	1	5	90	0.00	29.920 
10:35	65.5	65.5	65.5	45	43.6	1	3	270	0.00	29.920 
10:40	65.6	65.6	65.6	45	43.7	1	5	225	0.00	29.920 
10:45	65.6	65.6	65.6	44	43.1	2	5	270	0.00	29.918 
10:50	65.8	65.8	65.8	44	43.3	2	5	248	0.00	29.918 
10:55	66.0	66.0	66.0	44	43.5	2	7	270	0.00	29.918 
11:00	66.0	66.0	66.0	44	43.5	2	10	248	0.00	29.917 
11:05	66.1	66.1	66.1	44	43.5	2	7	225	0.00	29.917 
11:10	66.3	66.3	66.3	43	43.1	2	5	248	0.00	29.917 
11:15	66.4	66.4	66.4	44	43.8	1	6	270	0.00	29.910 
11:20	66.6	66.6	66.6	43	43.4	1	5	90	0.00	29.910 
11:25	66.8	66.8	66.8	43	43.6	2	6	248	0.00	29.910 
11:30	67.1	67.1	67.1	43	43.8	2	6	248	0.00	29.916 
11:35	67.6	67.6	67.6	43	44.3	2	6	248	0.00	29.916 
11:40	68.1	68.1	68.1	42	44.1	2	5	248	0.00	29.916 
11:45	68.3	68.3	68.3	42	44.3	1	7	248	0.00	29.913 
11:50	68.4	68.4	68.4	43	45.0	1	6	248	0.00	29.913 
11:55	68.4	68.4	68.4	42	44.4	2	6	248	0.00	29.913 
12:00	68.1	68.1	68.1	44	45.4	3	9	225	0.00	29.916 
12:05	67.8	67.8	67.8	47	46.8	2	7	248	0.00	29.916 
12:10	67.4	67.4	67.4	47	46.5	1	4	248	0.00	29.916 
12:15	67.4	67.4	67.4	46	45.9	2	6	248	0.00	29.907 
12:20	67.6	67.6	67.6	46	46.1	2	10	248	0.00	29.907 
12:25	68.1	68.1	68.1	46	46.5	2	7	248	0.00	29.907 
12:30	68.8	68.8	68.8	45	46.6	2	6	248	0.00	29.897 
12:35	69.6	69.6	69.6	43	46.1	2	5	248	0.00	29.897 
12:40	70.3	70.3	70.3	43	46.7	2	6	225	0.00	29.897 
12:45	70.8	70.8	70.8	43	47.2	2	9	248	0.00	29.883 
12:50	71.1	71.1	71.1	43	47.5	3	6	248	0.00	29.883 
12:55	70.8	70.8	70.8	43	47.2	2	5	248	0.00	29.883 
13:00	70.3	70.3	70.3	44	47.3	2	7	248	0.00	29.887 
13:05	69.9	69.9	69.9	46	48.2	2	5	248	0.00	29.887 
13:10	69.8	69.8	69.8	47	48.6	1	6	248	0.00	29.887 
13:15	69.8	69.8	69.8	49	49.8	1	4	225	0.00	29.871 
13:20	70.3	70.3	70.3	52	51.8	1	4	225	0.00	29.871 
13:25	70.6	70.6	70.6	53	52.6	2	5	270	0.00	29.871 
13:30	70.9	70.9	70.9	53	52.9	3	11	248	0.00	29.863 
13:35	71.3	71.3	71.3	52	52.8	4	10	248	0.00	29.863 
13:40	71.3	71.3	71.3	53	53.3	4	10	248	0.00	29.863 
13:45	71.3	71.3	71.3	54	53.8	3	10	248	0.00	29.852 
13:50	71.6	71.6	71.6	52	53.0	3	12	248	0.00	29.852 
13:55	71.8	71.8	71.8	52	53.2	4	12	270	0.00	29.852 
14:00	71.8	71.8	71.8	52	53.2	3	12	248	0.00	29.843 
14:05	72.3	72.3	72.3	51	53.1	2	9	248	0.00	29.843 
14:10	72.7	72.7	72.7	51	53.5	2	5	248	0.00	29.843 
14:15	72.7	72.7	72.7	50	53.0	2	6	270	0.00	29.835 
14:20	72.1	72.1	72.1	52	53.5	2	6	248	0.00	29.835 
14:25	71.5	71.5	71.5	53	53.5	2	9	248	0.00	29.835 
14:30	71.1	71.1	71.1	54	53.6	2	5	248	0.00	29.831 
14:35	70.8	70.8	70.8	55	53.8	3	9	248	0.00	29.831 
14:40	70.4	70.4	70.4	56	53.9	3	8	248	0.00	29.831 
14:45	70.3	70.3	70.3	57	54.3	3	6	270	0.00	29.822 
14:50	70.3	70.3	70.3	58	54.8	2	10	248	0.00	29.822 
14:55	70.8	70.8	70.8	58	55.3	2	6	248	0.00	29.822 
15:00	70.9	70.9	70.9	59	55.8	5	14	248	0.00	29.823 
15:05	70.6	70.6	70.6	59	55.6	4	11	248	0.00	29.823 
15:10	70.8	70.8	70.8	59	55.7	2	8	225	0.00	29.823 
15:15	71.5	71.5	71.5	58	55.9	2	8	248	0.00	29.816 
15:20	72.0	72.0	72.0	57	55.9	2	6	248	0.00	29.816 
15:25	72.0	72.0	72.0	56	55.4	3	10	248	0.00	29.816 
15:30	71.6	71.6	71.6	56	55.1	2	10	248	0.00	29.811 
15:35	71.3	71.3	71.3	57	55.3	2	11	270	0.00	29.811 
15:40	71.1	71.1	71.1	57	55.1	2	6	248	0.00	29.811 
15:45	70.9	70.9	70.9	57	54.9	1	6	248	0.00	29.808 
15:50	70.9	70.9	70.9	59	55.8	2	5	248	0.00	29.808 
15:55	70.4	70.4	70.4	60	55.8	2	7	248	0.00	29.808 
16:00	70.1	70.1	70.1	62	56.5	1	5	225	0.00	29.805 
16:05	69.9	69.9	69.9	61	55.8	2	6	270	0.00	29.805 
16:10	70.1	70.1	70.1	61	56.0	1	5	248	0.00	29.805 
16:15	70.3	70.3	70.3	61	56.2	1	6	248	0.00	29.804 
16:20	70.4	70.4	70.4	61	56.3	1	3	248	0.00	29.804 
16:25	70.4	70.4	70.4	60	55.8	1	5	248	0.00	29.804 
16:30	70.3	70.3	70.3	61	56.2	1	4	248	0.00	29.799 
16:35	70.3	70.3	70.3	61	56.2	1	3	112	0.00	29.799 
16:40	70.3	70.3	70.3	61	56.2	1	4	248	0.00	29.799 
16:45	70.3	70.3	70.3	62	56.7	0	3	292	0.00	29.804 
16:50	70.3	70.3	70.3	62	56.7	1	3	248	0.00	29.804 
16:55	70.4	70.4	70.4	62	56.7	0	2	225	0.00	29.804 
17:00	70.8	70.8	70.8	63	57.6	0	2	202	0.00	29.803 
17:05	70.8	70.8	70.8	62	57.1	1	5	90	0.00	29.803 
17:10	70.6	70.6	70.6	63	57.4	0	4	270	0.00	29.803 
17:15	70.6	70.6	70.6	63	57.4	0	4	45	0.00	29.795 
17:20	70.4	70.4	70.4	63	57.2	1	4	248	0.00	29.795 
17:25	70.4	70.4	70.4	62	56.7	2	6	158	0.00	29.795 
17:30	70.4	70.4	70.4	61	56.3	2	10	292	0.00	29.792 
17:35	70.4	70.4	70.4	61	56.3	2	7	248	0.00	29.792 
17:40	70.3	70.3	70.3	61	56.2	2	7	248	0.00	29.792 
17:45	70.3	70.3	70.3	62	56.7	1	6	248	0.00	29.792 
17:50	69.9	69.9	69.9	63	56.7	2	12	315	0.00	29.792 
17:55	69.6	69.6	69.6	64	56.9	2	7	248	0.00	29.792 
18:00	69.1	69.1	69.1	65	56.8	1	5	248	0.00	29.796 
18:05	68.6	68.6	68.6	66	56.8	2	5	248	0.00	29.796 
18:10	68.3	68.3	68.3	67	56.9	1	5	248	0.00	29.796 
18:15	67.9	67.9	67.9	68	56.9	2	7	270	0.00	29.794 
18:20	67.8	67.8	67.8	69	57.2	1	7	248	0.00	29.794 
18:25	67.4	67.4	67.4	69	56.9	1	5	248	0.00	29.794 
18:30	67.3	67.3	67.3	69	56.8	1	5	270	0.00	29.794 
18:35	67.1	67.1	67.1	70	57.0	1	5	248	0.00	29.794 
18:40	66.9	66.9	66.9	70	56.8	0	4	270	0.00	29.794 
18:45	66.6	66.6	66.6	71	56.9	1	3	248	0.00	29.795 
18:50	66.4	66.4	66.4	72	57.1	1	4	248	0.00	29.795 
18:55	66.3	66.3	66.3	72	57.0	0	1	270	0.00	29.795 
19:00	66.0	66.0	66.0	73	57.1	0	3	270	0.00	29.795 
19:05	65.6	65.6	65.6	74	57.1	0	1	270	0.00	29.795 
19:10	65.3	65.3	65.3	75	57.2	0	2	270	0.00	29.795 
19:15	65.2	65.2	65.2	76	57.4	0	1	270	0.00	29.796 
19:20	65.0	65.0	65.0	77	57.6	0	1	270	0.00	29.796 
19:25	64.7	64.7	64.7	77	57.3	0	2	0	0.00	29.796 
19:30	64.5	64.5	64.5	78	57.5	0	1	0	0.00	29.795 
19:35	64.3	64.3	64.3	79	57.6	0	1	0	0.00	29.795 
19:40	64.0	64.0	64.0	79	57.4	0	0	---	0.00	29.795 
19:45	63.9	63.9	63.9	79	57.3	0	4	90	0.00	29.795 
19:50	63.7	63.7	63.7	80	57.4	0	0	---	0.00	29.795 
19:55	63.5	63.5	63.5	81	57.6	0	3	90	0.00	29.795 
20:00	63.5	63.5	63.5	81	57.6	0	2	90	0.00	29.792 
20:05	63.5	63.5	63.5	81	57.6	0	1	90	0.00	29.792 
20:10	63.4	63.4	63.4	81	57.5	0	2	90	0.00	29.792 
20:15	63.2	63.2	63.2	81	57.3	0	2	90	0.00	29.789 
20:20	63.1	63.1	63.1	82	57.5	0	1	90	0.00	29.789 
20:25	63.1	63.1	63.1	82	57.5	0	3	90	0.00	29.789 
20:30	63.1	63.1	63.1	82	57.5	0	2	90	0.00	29.782 
20:35	63.1	63.1	63.1	82	57.5	0	2	112	0.00	29.782 
20:40	63.1	63.1	63.1	82	57.5	0	3	135	0.00	29.782 
20:45	62.9	62.9	62.9	82	57.3	0	2	112	0.00	29.782 
20:50	62.9	62.9	62.9	83	57.7	0	2	90	0.00	29.782 
20:55	62.7	62.7	62.7	83	57.5	0	2	90	0.00	29.782 
21:00	62.7	62.7	62.7	83	57.5	0	4	90	0.00	29.778 
21:05	62.6	62.6	62.6	83	57.4	0	0	---	0.00	29.778 
21:10	62.4	62.4	62.4	83	57.2	0	1	90	0.00	29.778 
21:15	62.3	62.3	62.3	84	57.4	0	1	90	0.00	29.772 
21:20	62.1	62.1	62.1	84	57.2	0	1	90	0.00	29.772 
21:25	62.0	62.0	62.0	84	57.1	0	0	---	0.00	29.772 
21:30	61.8	61.8	61.8	84	56.9	0	0	---	0.00	29.764 
21:35	61.5	61.5	61.5	84	56.6	0	0	---	0.00	29.764 
21:40	61.3	61.3	61.3	85	56.7	0	0	---	0.00	29.764 
21:45	61.0	61.0	61.0	85	56.5	0	0	---	0.00	29.757 
21:50	60.7	60.7	60.7	85	56.2	0	0	---	0.00	29.757 
21:55	60.4	60.4	60.4	85	55.9	0	0	---	0.00	29.757 
22:00	59.9	59.9	59.9	85	55.4	0	0	---	0.00	29.751 
22:05	59.6	59.6	59.6	86	55.4	0	0	---	0.00	29.751 
22:10	59.3	59.3	59.3	88	55.7	0	0	---	0.00	29.751 
22:15	59.3	59.3	59.3	89	56.1	0	0	---	0.00	29.744 
22:20	59.5	59.5	59.5	89	56.3	0	0	---	0.00	29.744 
22:25	59.6	59.6	59.6	89	56.4	0	1	90	0.00	29.744 
22:30	59.9	59.9	59.9	89	56.6	0	1	90	0.00	29.731 
22:35	60.1	60.1	60.1	88	56.5	0	0	---	0.00	29.731 
22:40	60.1	60.1	60.1	88	56.5	0	1	90	0.00	29.731 
22:45	60.2	60.2	60.2	88	56.6	0	1	90	0.00	29.728 
22:50	60.2	60.2	60.2	88	56.6	0	1	90	0.00	29.728 
22:55	60.4	60.4	60.4	87	56.5	0	3	90	0.00	29.728 
23:00	60.5	60.5	60.5	86	56.3	0	2	90	0.00	29.724 
23:05	60.9	60.9	60.9	84	56.0	0	1	90	0.00	29.724 
23:10	61.2	61.2	61.2	83	56.0	0	3	90	0.00	29.724 
23:15	61.6	61.6	61.6	82	56.0	0	2	90	0.00	29.719 
23:20	62.0	62.0	62.0	81	56.1	0	2	270	0.00	29.719 
23:25	62.3	62.3	62.3	80	56.0	0	4	270	0.00	29.719 
23:30	62.6	62.6	62.6	79	56.0	0	2	248	0.00	29.712 
23:35	63.1	63.1	63.1	77	55.8	1	4	248	0.00	29.712 
23:40	63.4	63.4	63.4	76	55.7	0	3	225	0.00	29.712 
23:45	63.5	63.5	63.5	76	55.8	1	3	270	0.00	29.710 
23:50	63.7	63.7	63.7	75	55.6	1	6	225	0.00	29.710 
23:55	64.0	64.0	64.0	75	55.9	1	4	248	0.00	29.710 

CoCoRaHS
IN-AL-39
A2 Web Hosting
Creative Commons License
GoDaddy
search engine by freefind advanced

loaded 2018-11-20 07:04:20 • last modified 2010-11-18 10:43:29
Privacy PolicyDisclaimer
• wx.awcolley.com is powered by PmWiki v.2002016 •
• all content (unless otherwise noted) © 2018 A W Colley